Time;durP1;ratioP1;P1;durP2;ratioP2;P2;SDS_P1;SDS_P2;PMS_P1;PMS_P2;Temp;Humidity;BMP_temperature;BMP_pressure;BME280_temperature;BME280_humidity;BME280_pressure;Samples;Min_cycle;Max_cycle;Signal;HPM_P1;HPM_P2
2021/03/10 00:00:39;;;;;;;132.10;57.63;;;;;;;-1.99;54.40;99359.41;125003;1105;104153;-69
2021/03/10 00:03:08;;;;;;;125.57;54.93;;;;;;;-2.01;55.46;99353.36;124248;1105;104177;-68
2021/03/10 00:05:39;;;;;;;121.20;53.27;;;;;;;-2.02;54.35;99356.84;124288;1105;104214;-67
2021/03/10 00:08:06;;;;;;;126.30;52.67;;;;;;;-2.03;54.56;99358.58;124246;1105;104322;-67
2021/03/10 00:10:33;;;;;;;116.97;50.83;;;;;;;-2.05;54.47;99354.30;124148;1105;104187;-67
2021/03/10 00:13:09;;;;;;;126.50;52.13;;;;;;;-2.06;54.99;99356.05;124705;1105;104188;-68
2021/03/10 00:15:36;;;;;;;119.33;52.10;;;;;;;-2.08;55.27;99351.73;124181;1105;104693;-68
2021/03/10 00:18:05;;;;;;;115.03;49.23;;;;;;;-2.12;54.26;99343.12;124173;1105;104246;-67
2021/03/10 00:20:36;;;;;;;104.43;45.27;;;;;;;-2.15;54.97;99345.77;124237;1105;104275;-69
2021/03/10 00:23:03;;;;;;;97.53;41.87;;;;;;;-2.17;55.32;99340.56;124206;1106;104172;-68
2021/03/10 00:25:30;;;;;;;98.53;44.83;;;;;;;-2.18;55.09;99332.79;124272;1105;104181;-68
2021/03/10 00:27:58;;;;;;;112.03;48.13;;;;;;;-2.20;55.11;99338.01;124154;1105;104235;-68
2021/03/10 00:30:25;;;;;;;90.60;39.83;;;;;;;-2.23;54.49;99332.84;124164;1106;104229;-71
2021/03/10 00:32:53;;;;;;;89.67;40.35;;;;;;;-2.22;55.71;99338.93;124029;1105;104679;-70
2021/03/10 00:35:29;;;;;;;84.53;39.87;;;;;;;-2.23;55.40;99327.63;124232;1105;104158;-71
2021/03/10 00:38:03;;;;;;;78.40;35.60;;;;;;;-2.24;54.69;99333.73;124145;1105;104175;-71
2021/03/10 00:40:30;;;;;;;73.13;32.97;;;;;;;-2.25;54.74;99332.04;124244;1105;104181;-70
2021/03/10 00:42:57;;;;;;;69.67;33.63;;;;;;;-2.27;55.88;99325.98;124194;1105;104300;-68
2021/03/10 00:45:23;;;;;;;80.37;37.97;;;;;;;-2.26;55.70;99328.55;124206;1105;104264;-69
2021/03/10 00:47:56;;;;;;;76.62;36.25;;;;;;;-2.25;55.69;99319.01;124154;1105;104258;-71
2021/03/10 00:50:27;;;;;;;71.57;31.97;;;;;;;-2.26;54.93;99315.52;124208;1105;104249;-69
2021/03/10 00:52:57;;;;;;;69.07;32.43;;;;;;;-2.25;55.21;99312.03;124240;1105;104237;-69
2021/03/10 00:55:28;;;;;;;83.27;36.80;;;;;;;-2.23;54.81;99314.60;125252;1105;104150;-69
2021/03/10 00:57:55;;;;;;;75.63;37.03;;;;;;;-2.23;55.33;99311.99;124209;1105;104341;-70
2021/03/10 01:00:25;;;;;;;82.90;40.58;;;;;;;-2.25;55.32;99311.19;124265;1105;104309;-70
2021/03/10 01:02:51;;;;;;;77.87;40.07;;;;;;;-2.27;55.96;99312.96;124250;1105;104184;-70
2021/03/10 01:05:19;;;;;;;76.70;38.43;;;;;;;-2.30;55.73;99302.58;123918;1105;104314;-72
2021/03/10 01:07:46;;;;;;;72.62;33.98;;;;;;;-2.33;55.88;99308.69;124343;1105;104146;-71
2021/03/10 01:10:18;;;;;;;77.57;35.77;;;;;;;-2.34;56.10;99304.36;124286;1105;104312;-71
2021/03/10 01:12:45;;;;;;;74.73;33.30;;;;;;;-2.34;55.88;99306.13;124225;1105;104159;-69
2021/03/10 01:15:17;;;;;;;79.93;36.23;;;;;;;-2.35;55.97;99302.64;124138;1105;104203;-70
2021/03/10 01:17:46;;;;;;;76.73;36.30;;;;;;;-2.37;55.14;99299.20;124815;1105;104688;-69
2021/03/10 01:20:24;;;;;;;79.87;35.53;;;;;;;-2.37;55.77;99303.56;125760;1105;101820;-70
2021/03/10 01:22:55;;;;;;;82.53;36.23;;;;;;;-2.40;55.12;99305.33;124321;1105;104478;-70
2021/03/10 01:25:24;;;;;;;75.60;36.43;;;;;;;-2.40;55.60;99296.64;124229;1105;104242;-71
2021/03/10 01:27:51;;;;;;;73.00;35.73;;;;;;;-2.43;55.22;99297.56;126195;1105;102060;-70
2021/03/10 01:30:19;;;;;;;68.53;34.13;;;;;;;-2.42;55.28;99296.67;124274;1105;104265;-70
2021/03/10 01:32:48;;;;;;;72.47;33.20;;;;;;;-2.43;55.24;99286.27;124240;1105;104258;-69
2021/03/10 01:35:19;;;;;;;68.27;32.60;;;;;;;-2.42;56.03;99290.59;125053;1105;104300;-70
2021/03/10 01:37:46;;;;;;;73.03;35.60;;;;;;;-2.47;55.90;99290.67;124538;1105;104207;-70
2021/03/10 01:40:19;;;;;;;70.33;33.23;;;;;;;-2.50;55.76;99288.12;124292;1105;104258;-71
2021/03/10 01:42:50;;;;;;;85.30;38.17;;;;;;;-2.54;55.38;99283.84;124294;1105;104245;-71
2021/03/10 01:45:17;;;;;;;85.55;39.00;;;;;;;-2.62;55.09;99283.09;124329;1105;104211;-70
2021/03/10 01:47:51;;;;;;;79.37;37.10;;;;;;;-2.64;55.83;99284.86;124275;1105;104374;-70
2021/03/10 01:50:22;;;;;;;77.07;36.10;;;;;;;-2.65;56.32;99284.02;124251;1105;104184;-70
2021/03/10 01:52:49;;;;;;;84.07;38.67;;;;;;;-2.63;55.47;99281.37;124248;1105;104210;-69
2021/03/10 01:55:16;;;;;;;76.03;35.50;;;;;;;-2.64;55.40;99287.46;124537;1105;104159;-69
2021/03/10 01:57:43;;;;;;;79.20;37.57;;;;;;;-2.63;56.54;99281.37;124126;1106;104214;-71
2021/03/10 02:00:10;;;;;;;85.75;39.70;;;;;;;-2.64;56.53;99277.05;124286;1105;104179;-70
2021/03/10 02:02:43;;;;;;;93.30;41.33;;;;;;;-2.64;56.05;99272.72;124255;1105;104264;-73
2021/03/10 02:05:18;;;;;;;89.40;42.53;;;;;;;-2.65;56.00;99280.56;123939;1105;104258;-71
2021/03/10 02:08:01;;;;;;;104.93;49.80;;;;;;;-2.66;56.35;99276.23;124172;1105;104127;-72
2021/03/10 02:10:46;;;;;;;107.37;49.55;;;;;;;-2.67;55.70;99274.52;124228;1106;104204;-72
2021/03/10 02:13:54;;;;;;;110.03;48.03;;;;;;;-2.71;56.53;99271.08;124281;1105;104144;-70
2021/03/10 02:16:23;;;;;;;100.10;46.23;;;;;;;-2.72;56.26;99274.56;124252;1105;104248;-71
2021/03/10 02:19:09;;;;;;;98.27;47.00;;;;;;;-2.73;55.88;99267.64;124356;1105;104255;-70
2021/03/10 02:22:02;;;;;;;98.23;43.87;;;;;;;-2.75;56.75;99270.28;124279;1106;104242;-70
2021/03/10 02:24:57;;;;;;;78.67;38.33;;;;;;;-2.77;56.58;99268.56;124263;1105;104174;-70
2021/03/10 02:27:40;;;;;;;77.50;35.87;;;;;;;-2.78;56.07;99264.24;124213;1105;104178;-71
2021/03/10 02:30:21;;;;;;;78.70;37.23;;;;;;;-2.78;56.12;99269.45;124274;1105;104184;-70
2021/03/10 02:32:56;;;;;;;70.07;33.60;;;;;;;-2.76;56.80;99265.08;124337;1105;104720;-69
2021/03/10 02:35:26;;;;;;;79.57;39.40;;;;;;;-2.77;56.53;99264.23;124295;1105;104198;-70
2021/03/10 02:37:59;;;;;;;80.27;38.33;;;;;;;-2.76;56.66;99263.35;124577;1105;104220;-71
2021/03/10 02:40:28;;;;;;;86.37;40.83;;;;;;;-2.76;56.58;99259.88;124237;1105;104144;-69
2021/03/10 02:42:59;;;;;;;79.57;38.63;;;;;;;-2.77;57.16;99261.63;124146;1105;104159;-69
2021/03/10 02:45:29;;;;;;;87.60;41.25;;;;;;;-2.79;56.63;99266.00;124249;1105;104194;-69
2021/03/10 02:47:59;;;;;;;84.20;39.73;;;;;;;-2.82;56.47;99273.86;124821;1105;104240;-70
2021/03/10 02:50:29;;;;;;;66.73;35.57;;;;;;;-2.85;56.69;99279.10;124605;1105;104156;-71
2021/03/10 02:52:58;;;;;;;80.17;35.93;;;;;;;-2.86;56.46;99279.98;125320;1105;104392;-69
2021/03/10 02:55:29;;;;;;;74.50;36.27;;;;;;;-2.88;56.85;99268.73;124225;1105;104198;-70
2021/03/10 02:58:01;;;;;;;80.13;37.87;;;;;;;-2.91;56.69;99272.25;124223;1105;104299;-70
2021/03/10 03:00:32;;;;;;;82.67;40.90;;;;;;;-2.94;56.67;99272.30;124670;1105;104207;-70
2021/03/10 03:02:59;;;;;;;95.37;45.67;;;;;;;-2.93;56.41;99275.75;124318;1105;104152;-70
2021/03/10 03:05:27;;;;;;;89.50;41.33;;;;;;;-2.93;56.71;99274.02;124211;1105;104279;-70
2021/03/10 03:07:58;;;;;;;84.87;40.73;;;;;;;-2.94;56.81;99274.90;124201;1105;104338;-70
2021/03/10 03:10:41;;;;;;;94.40;45.40;;;;;;;-2.93;56.80;99287.03;124168;1105;104185;-69
2021/03/10 03:13:14;;;;;;;89.27;43.07;;;;;;;-2.93;57.32;99286.16;124226;1105;104192;-69
2021/03/10 03:15:45;;;;;;;87.17;42.60;;;;;;;-2.96;57.00;99281.87;124246;1105;104214;-69
2021/03/10 03:18:15;;;;;;;89.77;40.30;;;;;;;-2.97;57.02;99292.28;124281;1105;104265;-70
2021/03/10 03:20:42;;;;;;;79.97;36.57;;;;;;;-3.03;57.51;99285.44;124372;1105;104153;-70
2021/03/10 03:23:10;;;;;;;73.70;36.33;;;;;;;-3.04;56.72;99288.91;124293;1105;104241;-70
2021/03/10 03:25:43;;;;;;;75.33;37.07;;;;;;;-3.05;57.38;99280.23;124228;1105;104153;-70
2021/03/10 03:28:25;;;;;;;72.30;37.07;;;;;;;-3.05;57.63;99279.39;124294;1105;104165;-70
2021/03/10 03:30:55;;;;;;;77.30;36.73;;;;;;;-3.07;57.23;99275.94;124983;1105;104312;-69
2021/03/10 03:33:28;;;;;;;75.50;36.57;;;;;;;-3.09;57.38;99277.70;124174;1105;104155;-70
2021/03/10 03:35:57;;;;;;;75.30;33.92;;;;;;;-3.09;56.93;99280.31;125220;1104;104150;-69
2021/03/10 03:38:29;;;;;;;77.33;35.73;;;;;;;-3.10;57.37;99275.98;124181;1105;104169;-69
2021/03/10 03:40:57;;;;;;;69.53;35.85;;;;;;;-3.11;57.77;99276.86;124304;1105;104233;-69
2021/03/10 03:43:29;;;;;;;73.67;34.03;;;;;;;-3.11;57.40;99279.47;124301;1105;104188;-70
2021/03/10 03:46:00;;;;;;;73.83;35.30;;;;;;;-3.15;57.11;99273.45;124183;1105;104178;-70
2021/03/10 03:48:30;;;;;;;69.17;33.70;;;;;;;-3.16;57.58;99274.34;124266;1106;104152;-70
2021/03/10 03:50:58;;;;;;;67.97;33.83;;;;;;;-3.17;57.27;99277.81;123941;1105;104201;-69
2021/03/10 03:53:25;;;;;;;65.10;31.87;;;;;;;-3.19;57.00;99280.42;124194;1105;104169;-71
2021/03/10 03:55:52;;;;;;;68.72;31.62;;;;;;;-3.21;57.36;99282.19;124305;1105;104373;-72
2021/03/10 03:58:23;;;;;;;73.20;34.87;;;;;;;-3.21;57.43;99278.73;124256;1105;104182;-70
2021/03/10 04:00:50;;;;;;;71.17;33.05;;;;;;;-3.24;57.75;99279.62;124253;1105;104255;-69
2021/03/10 04:03:17;;;;;;;70.47;33.10;;;;;;;-3.26;57.70;99280.53;124130;1105;104278;-69
2021/03/10 04:05:47;;;;;;;62.23;30.87;;;;;;;-3.29;56.99;99284.05;124667;1105;104149;-69
2021/03/10 04:08:17;;;;;;;61.98;30.32;;;;;;;-3.31;57.44;99281.45;124185;1105;104309;-70
2021/03/10 04:10:45;;;;;;;57.43;28.20;;;;;;;-3.32;57.86;99274.53;124148;1104;104204;-69
2021/03/10 04:13:13;;;;;;;67.77;31.63;;;;;;;-3.30;57.89;99282.33;125299;1105;104167;-70
2021/03/10 04:15:40;;;;;;;63.57;29.80;;;;;;;-3.29;57.18;99282.30;124308;1105;104283;-70
2021/03/10 04:18:10;;;;;;;57.70;29.30;;;;;;;-3.27;57.51;99281.41;124262;1105;104147;-70
2021/03/10 04:20:37;;;;;;;92.37;47.33;;;;;;;-3.26;57.98;99283.13;124210;1105;104325;-71
2021/03/10 04:23:04;;;;;;;68.43;33.33;;;;;;;-3.27;57.75;99277.09;124209;1105;104611;-71
2021/03/10 04:25:31;;;;;;;65.13;28.97;;;;;;;-3.25;58.18;99271.85;124385;1105;104228;-70
2021/03/10 04:27:57;;;;;;;65.83;32.77;;;;;;;-3.24;58.10;99279.62;124273;1105;104175;-71
2021/03/10 04:30:24;;;;;;;71.43;33.23;;;;;;;-3.24;57.95;99282.22;124906;1105;104220;-71
2021/03/10 04:32:51;;;;;;;59.77;28.60;;;;;;;-3.23;57.74;99281.34;124245;1105;104717;-72
2021/03/10 04:35:21;;;;;;;61.90;29.93;;;;;;;-3.22;58.10;99272.66;124221;1105;104178;-70
2021/03/10 04:37:52;;;;;;;59.70;28.63;;;;;;;-3.21;58.16;99271.78;124313;1105;104201;-71
2021/03/10 04:40:21;;;;;;;65.08;31.40;;;;;;;-3.21;58.33;99273.53;124183;1105;104290;-71
2021/03/10 04:42:48;;;;;;;60.37;30.63;;;;;;;-3.22;58.06;99267.45;124302;1105;104315;-71
2021/03/10 04:45:16;;;;;;;60.17;30.70;;;;;;;-3.22;58.35;99275.26;124221;1105;104181;-70
2021/03/10 04:47:44;;;;;;;61.20;27.67;;;;;;;-3.19;58.42;99282.18;123994;1105;104162;-71
2021/03/10 04:50:17;;;;;;;59.80;27.97;;;;;;;-3.18;58.44;99281.30;125853;1105;102096;-71
2021/03/10 04:52:44;;;;;;;58.10;28.20;;;;;;;-3.17;58.19;99276.06;124203;1105;104175;-72
2021/03/10 04:55:14;;;;;;;61.60;28.87;;;;;;;-3.14;58.61;99280.38;124213;1105;104267;-71
2021/03/10 04:57:41;;;;;;;56.60;28.70;;;;;;;-3.13;58.28;99276.90;124202;1105;104220;-70
2021/03/10 05:00:13;;;;;;;61.77;30.63;;;;;;;-3.09;58.04;99278.58;124268;1105;104437;-69
2021/03/10 05:02:40;;;;;;;59.67;29.30;;;;;;;-3.05;58.31;99277.63;124629;1105;104159;-72
2021/03/10 05:05:12;;;;;;;68.13;33.87;;;;;;;-3.02;58.12;99276.75;124194;1105;104153;-71
2021/03/10 05:07:48;;;;;;;65.30;33.07;;;;;;;-3.00;58.14;99280.19;124238;1105;104369;-69
2021/03/10 05:10:17;;;;;;;63.20;31.80;;;;;;;-2.99;58.15;99272.34;124253;1105;104245;-68
2021/03/10 05:12:44;;;;;;;62.83;29.63;;;;;;;-2.95;58.84;99274.91;124180;1105;104208;-68
2021/03/10 05:15:11;;;;;;;58.17;30.93;;;;;;;-2.91;58.88;99273.98;124283;1105;104691;-69
2021/03/10 05:17:38;;;;;;;59.53;29.23;;;;;;;-2.89;58.47;99270.49;124231;1105;104229;-70
2021/03/10 05:20:09;;;;;;;62.83;33.23;;;;;;;-2.87;58.07;99275.66;124228;1105;104172;-70
2021/03/10 05:22:40;;;;;;;63.83;31.73;;;;;;;-2.85;57.97;99269.53;124704;1105;104208;-70
2021/03/10 05:25:11;;;;;;;68.03;33.83;;;;;;;-2.82;58.14;99275.58;124180;1105;104156;-69
2021/03/10 05:27:41;;;;;;;76.13;37.07;;;;;;;-2.79;58.65;99279.02;124219;1105;104290;-69
2021/03/10 05:30:10;;;;;;;80.83;39.57;;;;;;;-2.75;59.00;99282.42;124953;1105;104175;-69
2021/03/10 05:32:41;;;;;;;79.20;40.00;;;;;;;-2.71;58.11;99282.38;124217;1105;104233;-71
2021/03/10 05:35:10;;;;;;;82.53;39.30;;;;;;;-2.67;59.23;99285.78;124886;1105;103011;-69
2021/03/10 05:37:38;;;;;;;79.87;39.37;;;;;;;-2.62;59.08;99285.70;124604;1105;104168;-70
2021/03/10 05:40:08;;;;;;;81.20;39.27;;;;;;;-2.58;59.18;99282.16;125191;1105;104162;-70
2021/03/10 05:42:42;;;;;;;84.90;43.98;;;;;;;-2.55;58.75;99287.33;125248;1105;103906;-70
2021/03/10 05:45:13;;;;;;;82.80;42.63;;;;;;;-2.51;58.29;99289.00;124130;1105;104300;-69
2021/03/10 05:47:40;;;;;;;89.23;44.87;;;;;;;-2.47;58.94;99287.23;124191;1105;104165;-71
2021/03/10 05:50:15;;;;;;;90.65;44.05;;;;;;;-2.44;58.47;99282.81;124408;1105;104203;-71
2021/03/10 05:52:46;;;;;;;79.47;40.90;;;;;;;-2.37;59.31;99282.72;124320;1105;104178;-70
2021/03/10 05:55:20;;;;;;;80.73;40.80;;;;;;;-2.36;59.22;99290.50;124301;1105;104166;-70
2021/03/10 05:57:47;;;;;;;81.57;39.47;;;;;;;-2.34;58.69;99283.52;124244;1105;104293;-70
2021/03/10 06:00:19;;;;;;;75.33;38.83;;;;;;;-2.29;59.45;99283.45;124174;1105;104255;-69
2021/03/10 06:02:46;;;;;;;93.53;44.00;;;;;;;-2.25;59.41;99279.92;124277;1105;104204;-71
2021/03/10 06:05:22;;;;;;;78.20;38.27;;;;;;;-2.20;59.06;99285.04;124247;1105;104176;-71
2021/03/10 06:08:06;;;;;;;75.30;39.30;;;;;;;-2.18;59.61;99294.53;124342;1105;104168;-74
2021/03/10 06:10:45;;;;;;;83.40;39.87;;;;;;;-2.13;59.29;99295.32;124183;1105;104315;-76
2021/03/10 06:13:32;;;;;;;76.57;39.77;;;;;;;-2.14;59.62;99298.81;124212;1105;104217;-74
2021/03/10 06:16:04;;;;;;;81.00;38.67;;;;;;;-2.08;59.90;99304.81;124231;1105;104191;-74
2021/03/10 06:18:34;;;;;;;73.33;35.47;;;;;;;-2.03;58.80;99300.38;124239;1105;104271;-73
2021/03/10 06:21:20;;;;;;;73.80;36.07;;;;;;;-1.99;59.23;99315.93;124138;1105;104586;-71
2021/03/10 06:24:05;;;;;;;71.30;35.10;;;;;;;-1.89;60.02;99319.27;124181;1105;104239;-72
2021/03/10 06:26:35;;;;;;;63.37;33.20;;;;;;;-1.81;59.10;99314.74;124230;1105;104207;-73
2021/03/10 06:29:13;;;;;;;60.90;30.00;;;;;;;-1.75;59.05;99315.52;124221;1105;104149;-73
2021/03/10 06:31:42;;;;;;;57.97;28.27;;;;;;;-1.67;59.17;99322.34;124592;1105;104178;-74
2021/03/10 06:34:15;;;;;;;53.92;27.50;;;;;;;-1.57;59.71;99332.58;124247;1105;104608;-74
2021/03/10 06:36:43;;;;;;;51.10;27.27;;;;;;;-1.47;60.00;99328.91;124340;1105;104358;-74
2021/03/10 06:39:24;;;;;;;55.67;27.27;;;;;;;-1.36;60.08;99331.30;124095;1105;104181;-74
2021/03/10 06:41:52;;;;;;;55.13;28.43;;;;;;;-1.27;59.26;99336.34;124215;1105;104271;-74
2021/03/10 06:44:27;;;;;;;49.57;25.50;;;;;;;-1.16;60.36;99340.50;124138;1105;104194;-74
2021/03/10 06:47:00;;;;;;;50.77;24.47;;;;;;;-1.07;59.71;99345.54;124206;1106;104160;-74
2021/03/10 06:49:31;;;;;;;47.60;24.12;;;;;;;-0.95;60.41;99339.20;124136;1105;104153;-73
2021/03/10 06:52:20;;;;;;;48.27;23.97;;;;;;;-0.84;60.34;99339.83;124124;1105;104264;-74
2021/03/10 06:54:55;;;;;;;49.53;25.23;;;;;;;-0.77;60.18;99338.78;124177;1104;104169;-74
2021/03/10 06:57:23;;;;;;;48.23;24.87;;;;;;;-0.69;59.59;99337.75;124172;1105;104204;-73
2021/03/10 06:59:56;;;;;;;46.00;23.70;;;;;;;-0.58;59.94;99334.89;124214;1105;104178;-73
2021/03/10 07:02:25;;;;;;;46.23;22.70;;;;;;;-0.49;59.64;99338.17;124135;1105;104162;-73
2021/03/10 07:05:01;;;;;;;46.13;23.13;;;;;;;-0.37;59.49;99341.38;124701;1105;102829;-73
2021/03/10 07:07:31;;;;;;;47.43;26.40;;;;;;;-0.27;59.78;99342.04;124123;1106;104233;-74
2021/03/10 07:10:20;;;;;;;53.20;25.93;;;;;;;-0.19;59.96;99338.34;124247;1105;104156;-74
2021/03/10 07:12:48;;;;;;;45.00;23.87;;;;;;;-0.07;60.00;99339.78;125005;1105;103055;-73
2021/03/10 07:15:19;;;;;;;45.97;22.70;;;;;;;0.05;60.47;99338.61;123898;1106;104275;-74
2021/03/10 07:17:48;;;;;;;47.90;23.20;;;;;;;0.18;60.22;99335.69;124056;1105;104352;-74
2021/03/10 07:20:17;;;;;;;47.87;23.43;;;;;;;0.28;60.12;99343.25;124065;1105;104184;-74
2021/03/10 07:23:11;;;;;;;51.47;26.67;;;;;;;0.41;60.23;99341.16;124110;1105;104339;-74
2021/03/10 07:25:49;;;;;;;51.73;25.60;;;;;;;0.58;60.31;99351.20;124127;1105;104188;-75
2021/03/10 07:28:21;;;;;;;47.90;25.10;;;;;;;0.69;60.14;99344.80;124184;1105;104297;-75
2021/03/10 07:30:50;;;;;;;43.70;21.63;;;;;;;0.81;60.20;99348.86;124129;1105;104736;-75
2021/03/10 07:33:23;;;;;;;43.60;22.10;;;;;;;0.94;60.23;99351.98;124241;1105;104252;-77
2021/03/10 07:35:54;;;;;;;43.38;21.95;;;;;;;1.02;60.27;99342.11;124250;1105;104184;-75
2021/03/10 07:38:37;;;;;;;47.87;23.43;;;;;;;1.08;60.04;99339.31;124513;1105;104239;-75
2021/03/10 07:41:13;;;;;;;41.93;22.77;;;;;;;1.13;60.00;99341.82;124320;1105;104313;-71
2021/03/10 07:43:44;;;;;;;50.43;23.10;;;;;;;1.21;60.04;99352.94;124614;1105;104191;-75
2021/03/10 07:46:24;;;;;;;44.73;23.20;;;;;;;1.30;60.35;99349.17;124114;1105;104165;-73
2021/03/10 07:48:55;;;;;;;45.80;23.07;;;;;;;1.42;60.60;99354.05;124178;1105;104717;-71
2021/03/10 07:51:36;;;;;;;45.30;23.93;;;;;;;1.53;60.57;99348.47;124200;1105;104179;-74
2021/03/10 07:54:25;;;;;;;43.47;22.20;;;;;;;1.64;60.23;99351.59;124167;1105;104422;-70
2021/03/10 07:57:19;;;;;;;37.50;17.20;;;;;;;1.76;60.91;99344.25;124917;1105;104281;-72
2021/03/10 07:59:57;;;;;;;28.60;13.90;;;;;;;1.85;59.79;99349.20;124356;1105;104191;-71
2021/03/10 08:02:26;;;;;;;53.20;28.13;;;;;;;1.95;60.34;99347.13;124947;1105;104184;-72
2021/03/10 08:05:02;;;;;;;55.93;28.40;;;;;;;2.11;60.42;99344.86;124420;1105;104198;-72
2021/03/10 08:07:33;;;;;;;35.17;14.77;;;;;;;2.26;60.11;99355.75;124232;1106;104191;-73
2021/03/10 08:10:03;;;;;;;30.53;13.67;;;;;;;2.42;60.23;99354.33;124217;1105;104188;-74
2021/03/10 08:12:41;;;;;;;33.27;14.40;;;;;;;2.49;60.60;99361.06;124432;1105;104226;-72
2021/03/10 08:15:23;;;;;;;28.43;13.37;;;;;;;2.55;60.09;99344.25;124326;1105;104284;-71
2021/03/10 08:18:03;;;;;;;32.23;13.57;;;;;;;2.63;60.05;99352.72;124238;1105;104159;-73
2021/03/10 08:20:35;;;;;;;30.30;12.90;;;;;;;2.63;60.51;99351.84;124622;1104;104225;-74
2021/03/10 08:23:07;;;;;;;32.20;14.47;;;;;;;2.68;59.99;99345.51;124185;1105;104293;-75
2021/03/10 08:25:36;;;;;;;31.23;13.60;;;;;;;2.76;60.63;99352.27;124991;1105;105183;-73
2021/03/10 08:28:14;;;;;;;28.90;12.57;;;;;;;2.86;59.89;99350.15;124219;1105;104181;-74
2021/03/10 08:30:43;;;;;;;29.40;11.17;;;;;;;2.97;59.93;99345.37;124260;1105;104193;-74
2021/03/10 08:33:12;;;;;;;28.23;12.37;;;;;;;3.05;59.88;99345.10;124284;1105;104329;-75
2021/03/10 08:35:51;;;;;;;29.73;10.97;;;;;;;3.02;59.49;99347.84;124272;1105;104178;-74
2021/03/10 08:38:18;;;;;;;31.57;12.83;;;;;;;2.97;59.13;99351.49;124330;1105;104641;-74
2021/03/10 08:40:47;;;;;;;27.93;12.20;;;;;;;3.09;59.83;99346.67;124263;1105;104175;-75
2021/03/10 08:43:21;;;;;;;75.40;40.60;;;;;;;3.24;59.79;99345.27;125823;1105;102792;-73
2021/03/10 08:45:48;;;;;;;48.40;22.67;;;;;;;3.37;59.84;99350.91;126383;1104;103526;-74
2021/03/10 08:48:15;;;;;;;44.10;20.00;;;;;;;3.46;59.79;99344.42;124697;1105;104313;-75
2021/03/10 08:50:51;;;;;;;30.83;11.47;;;;;;;3.54;59.28;99352.87;124334;1105;104155;-76
2021/03/10 08:53:18;;;;;;;26.37;10.77;;;;;;;3.66;59.24;99348.89;124313;1105;104249;-74
2021/03/10 08:55:46;;;;;;;24.03;9.53;;;;;;;3.52;59.36;99346.81;124310;1105;104250;-74
2021/03/10 08:58:19;;;;;;;25.23;10.00;;;;;;;3.41;59.23;99353.34;124343;1105;104293;-74
2021/03/10 09:00:50;;;;;;;23.98;9.55;;;;;;;3.32;59.63;99350.22;124135;1105;104236;-75
2021/03/10 09:03:22;;;;;;;23.97;9.00;;;;;;;3.34;59.20;99354.48;124356;1105;104252;-73
2021/03/10 09:06:00;;;;;;;23.77;9.50;;;;;;;3.32;59.46;99344.95;124304;1105;104284;-75
2021/03/10 09:08:29;;;;;;;22.00;8.37;;;;;;;3.16;59.31;99349.95;124301;1105;104251;-77
2021/03/10 09:10:59;;;;;;;21.97;9.30;;;;;;;3.04;59.18;99346.86;124314;1105;104283;-75
2021/03/10 09:13:28;;;;;;;22.63;9.13;;;;;;;2.88;58.72;99349.20;124440;1105;104272;-73
2021/03/10 09:15:55;;;;;;;21.03;8.80;;;;;;;2.72;59.24;99353.28;124306;1106;104158;-74
2021/03/10 09:18:34;;;;;;;22.93;9.63;;;;;;;2.65;58.74;99353.49;124289;1105;104262;-74
2021/03/10 09:21:02;;;;;;;25.87;9.63;;;;;;;2.54;59.20;99358.30;124333;1105;104265;-75
2021/03/10 09:23:30;;;;;;;22.20;9.43;;;;;;;2.52;58.63;99350.45;124380;1105;104730;-75
2021/03/10 09:26:00;;;;;;;22.80;9.03;;;;;;;2.55;58.35;99346.88;124257;1105;104264;-74
2021/03/10 09:28:37;;;;;;;21.40;8.40;;;;;;;2.48;58.44;99343.59;124387;1105;104556;-75
2021/03/10 09:31:18;;;;;;;23.20;8.70;;;;;;;2.38;58.08;99350.94;124317;1105;104165;-76
2021/03/10 09:33:46;;;;;;;22.20;8.23;;;;;;;2.31;58.89;99348.58;124293;1105;104235;-72
2021/03/10 09:36:24;;;;;;;21.65;8.40;;;;;;;2.30;58.83;99352.96;124258;1105;104181;-73
2021/03/10 09:38:52;;;;;;;23.67;8.90;;;;;;;2.34;58.19;99348.48;124143;1105;104223;-73
2021/03/10 09:41:28;;;;;;;21.30;7.87;;;;;;;2.33;58.34;99354.64;124224;1105;104529;-74
2021/03/10 09:44:08;;;;;;;22.23;8.57;;;;;;;2.23;58.73;99349.70;124195;1105;104290;-74
2021/03/10 09:46:43;;;;;;;23.17;8.00;;;;;;;2.17;58.28;99351.69;124126;1105;104207;-73
2021/03/10 09:49:11;;;;;;;16.93;5.97;;;;;;;2.08;58.01;99351.08;124186;1105;104181;-76
2021/03/10 09:51:46;;;;;;;19.83;7.50;;;;;;;2.01;57.93;99359.21;124213;1104;104185;-75
2021/03/10 09:54:13;;;;;;;22.67;9.00;;;;;;;1.96;58.06;99356.72;124157;1105;104261;-77
2021/03/10 09:56:51;;;;;;;25.17;8.90;;;;;;;1.97;58.31;99362.84;124244;1105;104261;-73
2021/03/10 09:59:19;;;;;;;27.30;9.80;;;;;;;1.93;58.07;99362.06;124340;1105;104190;-76
2021/03/10 10:01:46;;;;;;;23.40;9.40;;;;;;;1.88;58.08;99362.23;124239;1105;104208;-72
2021/03/10 10:04:14;;;;;;;21.33;8.90;;;;;;;1.90;57.94;99359.53;124208;1105;104226;-77
2021/03/10 10:06:51;;;;;;;25.57;9.98;;;;;;;1.89;57.86;99366.56;124175;1105;104166;-73
2021/03/10 10:09:18;;;;;;;23.57;9.67;;;;;;;1.89;57.67;99368.31;124252;1105;104188;-74
2021/03/10 10:11:45;;;;;;;22.25;8.95;;;;;;;1.92;57.84;99368.22;124013;1105;104261;-74
2021/03/10 10:14:12;;;;;;;19.90;7.60;;;;;;;1.98;57.46;99375.05;124280;1105;104890;-75
2021/03/10 10:16:39;;;;;;;21.80;8.35;;;;;;;2.00;57.43;99368.83;124225;1105;104162;-72
2021/03/10 10:19:06;;;;;;;24.73;9.00;;;;;;;2.00;57.35;99370.62;124222;1105;104274;-74
2021/03/10 10:21:35;;;;;;;20.57;8.70;;;;;;;2.00;57.54;99374.08;124322;1105;104338;-74
2021/03/10 10:24:02;;;;;;;16.35;7.40;;;;;;;2.01;57.66;99378.42;124347;1105;104223;-74
2021/03/10 10:26:29;;;;;;;17.55;7.45;;;;;;;2.06;57.03;99380.88;124211;1105;104243;-74
2021/03/10 10:28:56;;;;;;;21.45;8.45;;;;;;;2.10;57.77;99372.00;124258;1105;104190;-75
2021/03/10 10:31:29;;;;;;;17.97;7.20;;;;;;;2.19;57.49;99378.73;124230;1105;104255;-76
2021/03/10 10:33:56;;;;;;;18.83;7.60;;;;;;;2.31;57.51;99374.84;124212;1105;104175;-75
2021/03/10 10:36:24;;;;;;;18.10;7.07;;;;;;;2.48;56.98;99382.13;124196;1105;104187;-76
2021/03/10 10:38:51;;;;;;;17.70;7.30;;;;;;;2.62;57.30;99376.40;124214;1105;104281;-75
2021/03/10 10:41:19;;;;;;;19.00;7.33;;;;;;;2.74;57.34;99381.23;124146;1105;104242;-77
2021/03/10 10:43:46;;;;;;;20.07;7.67;;;;;;;2.89;57.60;99371.94;124232;1105;104261;-75
2021/03/10 10:46:13;;;;;;;21.07;8.23;;;;;;;2.97;57.26;99372.52;123957;1105;104312;-77
2021/03/10 10:48:40;;;;;;;16.23;6.57;;;;;;;3.11;56.85;99369.37;124283;1105;104265;-76
2021/03/10 10:51:08;;;;;;;17.80;7.50;;;;;;;3.22;57.58;99368.97;124132;1105;104351;-76
2021/03/10 10:53:35;;;;;;;19.77;8.40;;;;;;;3.34;57.23;99369.42;124236;1105;104198;-76
2021/03/10 10:56:04;;;;;;;16.97;7.60;;;;;;;3.46;57.14;99365.46;124253;1105;104188;-75
2021/03/10 10:58:30;;;;;;;16.87;7.77;;;;;;;3.46;57.16;99368.96;124231;1105;104182;-74
2021/03/10 11:00:57;;;;;;;16.93;6.97;;;;;;;3.49;56.65;99367.97;124270;1105;103501;-75
2021/03/10 11:03:25;;;;;;;19.43;8.17;;;;;;;3.51;57.01;99374.03;124228;1105;104399;-75
2021/03/10 11:05:53;;;;;;;19.30;7.77;;;;;;;3.61;56.82;99362.24;124277;1105;104227;-76
2021/03/10 11:08:20;;;;;;;18.63;8.17;;;;;;;3.71;56.55;99363.57;124208;1105;104265;-76
2021/03/10 11:10:47;;;;;;;18.80;7.83;;;;;;;3.86;56.60;99361.25;124229;1104;104310;-76
2021/03/10 11:13:33;;;;;;;21.93;7.83;;;;;;;3.97;57.01;99364.31;124099;1105;104261;-75
2021/03/10 11:16:01;;;;;;;19.67;7.40;;;;;;;4.08;56.91;99362.99;124253;1105;104306;-75
2021/03/10 11:18:28;;;;;;;18.80;7.53;;;;;;;4.15;56.90;99357.44;124166;1105;104261;-75
2021/03/10 11:20:55;;;;;;;27.93;13.00;;;;;;;4.22;56.52;99355.39;124208;1105;104252;-77
2021/03/10 11:23:22;;;;;;;23.57;10.23;;;;;;;4.21;56.66;99350.20;124218;1105;104181;-75